Stavanger, Illinois
Current Conditions -  °F | °C
As of 1:35 AM on Monday 22 Dec 2014 (Local Time) from KC09 Reporting Station
Overcast Overcast  
Wind Chill: 23°   Ceiling: 4900
Heat Index: 33°   Visibility: 7mi
Dew Point: 30°   Wind: 14mph
Humidity: 91%   Direction: 150°SSE
Pressure: 29.97"   Gusts: 17mph
Location:  41.4306°N, 88.6107°W
Report Text: KC09 220735Z AUTO 15012G15KT 7SM OVC049 00/M01 A2997 RMK AO2 T00031010
Loading
Personal Weather Stations






























Interactive Weather Map New forecast layout! Learn more

10-Day Weather Forecast

Advertisements
Track Severe Weather on mobile